Time;durP1;ratioP1;P1;durP2;ratioP2;P2;SDS_P1;SDS_P2;PMS_P1;PMS_P2;Temp;Humidity;BMP_temperature;BMP_pressure;BME280_temperature;BME280_humidity;BME280_pressure;Samples;Min_cycle;Max_cycle;Signal;HPM_P1;HPM_P2
2022/07/27 00:02:06;;;;;;;;;;;;;;;;;;10380669;28;20016;-72
2022/07/27 00:07:07;;;;;;;;;;;;;;;;;;10378556;28;19918;-73
2022/07/27 00:12:07;;;;;;;;;;;;;;;;;;10364224;28;20004;-73
2022/07/27 00:17:07;;;;;;;;;;;;;;;;;;10376546;28;19924;-73
2022/07/27 00:22:08;;;;;;;;;;;;;;;;;;10372028;28;19948;-73
2022/07/27 00:27:08;;;;;;;;;;;;;;;;;;10374210;28;20385;-73
2022/07/27 00:32:08;;;;;;;;;;;;;;;;;;10373081;28;20062;-72
2022/07/27 00:37:08;;;;;;;;;;;;;;;;;;10381224;28;19917;-74
2022/07/27 00:42:08;;;;;;;;;;;;;;;;;;10370991;28;19933;-72
2022/07/27 00:47:09;;;;;;;;;;;;;;;;;;10382057;28;19917;-73
2022/07/27 00:52:09;;;;;;;;;;;;;;;;;;10380249;28;19924;-73
2022/07/27 00:57:09;;;;;;;;;;;;;;;;;;10388845;28;19925;-73
2022/07/27 01:02:09;;;;;;;;;;;;;;;;;;10389013;28;20024;-74
2022/07/27 01:07:10;;;;;;;;;;;;;;;;;;10383275;28;19924;-72
2022/07/27 01:12:10;;;;;;;;;;;;;;;;;;10386147;28;19921;-72
2022/07/27 01:17:10;;;;;;;;;;;;;;;;;;10382321;28;19917;-73
2022/07/27 01:22:10;;;;;;;;;;;;;;;;;;10381559;28;20000;-72
2022/07/27 01:27:10;;;;;;;;;;;;;;;;;;10378193;28;19928;-73
2022/07/27 01:32:11;;;;;;;;;;;;;;;;;;10383844;28;20023;-72
2022/07/27 01:37:11;;;;;;;;;;;;;;;;;;10380519;28;20000;-72
2022/07/27 01:42:11;;;;;;;;;;;;;;;;;;10385965;28;19977;-73
2022/07/27 01:47:11;;;;;;;;;;;;;;;;;;10383233;28;20050;-73
2022/07/27 01:52:12;;;;;;;;;;;;;;;;;;10374682;28;20509;-74
2022/07/27 01:57:12;;;;;;;;;;;;;;;;;;10381223;28;20403;-73
2022/07/27 02:02:14;;;;;;;;;;;;;;;;;;10377044;28;20028;-75
2022/07/27 02:07:15;;;;;;;;;;;;;;;;;;10381503;28;19921;-73
2022/07/27 02:17:34;;;;;;;;;;;;;;;;;;10374491;28;19925;-71
2022/07/27 02:22:34;;;;;;;;;;;;;;;;;;10385080;28;19933;-74
2022/07/27 02:27:34;;;;;;;;;;;;;;;;;;10375038;28;19921;-74
2022/07/27 02:32:35;;;;;;;;;;;;;;;;;;10377099;28;19917;-73
2022/07/27 02:37:35;;;;;;;;;;;;;;;;;;10373511;28;20320;-74
2022/07/27 02:42:35;;;;;;;;;;;;;;;;;;10379455;28;20084;-72
2022/07/27 02:47:36;;;;;;;;;;;;;;;;;;10373294;28;19975;-74
2022/07/27 02:52:36;;;;;;;;;;;;;;;;;;10379964;28;20674;-73
2022/07/27 02:57:39;;;;;;;;;;;;;;;;;;10376315;28;20010;-73
2022/07/27 03:02:40;;;;;;;;;;;;;;;;;;10353656;28;19925;-74
2022/07/27 03:07:40;;;;;;;;;;;;;;;;;;10378018;28;19917;-73
2022/07/27 03:12:40;;;;;;;;;;;;;;;;;;10381814;28;19927;-73
2022/07/27 03:17:41;;;;;;;;;;;;;;;;;;10383462;28;20368;-73
2022/07/27 03:22:41;;;;;;;;;;;;;;;;;;10369073;28;20044;-73
2022/07/27 03:27:41;;;;;;;;;;;;;;;;;;10376492;28;19925;-72
2022/07/27 03:32:42;;;;;;;;;;;;;;;;;;10371393;28;19917;-71
2022/07/27 03:37:42;;;;;;;;;;;;;;;;;;10377272;28;19999;-72
2022/07/27 03:42:42;;;;;;;;;;;;;;;;;;10380529;28;19925;-72
2022/07/27 03:47:42;;;;;;;;;;;;;;;;;;10374943;28;20068;-72
2022/07/27 03:52:43;;;;;;;;;;;;;;;;;;10377123;28;20055;-73
2022/07/27 03:57:43;;;;;;;;;;;;;;;;;;10364956;28;20020;-73
2022/07/27 04:02:43;;;;;;;;;;;;;;;;;;10378801;28;19928;-71
2022/07/27 04:07:43;;;;;;;;;;;;;;;;;;10379372;28;19920;-71
2022/07/27 04:12:44;;;;;;;;;;;;;;;;;;10377589;28;19990;-73
2022/07/27 04:17:44;;;;;;;;;;;;;;;;;;10366472;28;19917;-73
2022/07/27 04:22:44;;;;;;;;;;;;;;;;;;10374688;28;19921;-72
2022/07/27 04:27:44;;;;;;;;;;;;;;;;;;10375050;28;19921;-73
2022/07/27 04:32:44;;;;;;;;;;;;;;;;;;10371857;28;20330;-73
2022/07/27 04:37:45;;;;;;;;;;;;;;;;;;10379884;28;19913;-73
2022/07/27 04:42:45;;;;;;;;;;;;;;;;;;10374452;28;20427;-74
2022/07/27 04:47:45;;;;;;;;;;;;;;;;;;10378869;28;19921;-75
2022/07/27 04:52:45;;;;;;;;;;;;;;;;;;10374395;28;20295;-74
2022/07/27 04:57:46;;;;;;;;;;;;;;;;;;10375899;28;20428;-73
2022/07/27 05:02:47;;;;;;;;;;;;;;;;;;10376314;28;19995;-74
2022/07/27 05:07:47;;;;;;;;;;;;;;;;;;10380734;28;20430;-74
2022/07/27 05:12:47;;;;;;;;;;;;;;;;;;10380178;28;19928;-73
2022/07/27 05:17:48;;;;;;;;;;;;;;;;;;10372256;28;20860;-74
2022/07/27 05:22:48;;;;;;;;;;;;;;;;;;10382775;28;20264;-75
2022/07/27 05:27:49;;;;;;;;;;;;;;;;;;10374497;28;19928;-74
2022/07/27 05:32:49;;;;;;;;;;;;;;;;;;10385887;28;20008;-73
2022/07/27 05:37:49;;;;;;;;;;;;;;;;;;10381799;28;19917;-74
2022/07/27 05:42:49;;;;;;;;;;;;;;;;;;10380730;28;19941;-75
2022/07/27 05:47:50;;;;;;;;;;;;;;;;;;10385520;28;19921;-74
2022/07/27 05:52:50;;;;;;;;;;;;;;;;;;10388079;28;19921;-74
2022/07/27 05:57:50;;;;;;;;;;;;;;;;;;10387357;28;20000;-74
2022/07/27 06:02:50;;;;;;;;;;;;;;;;;;10391518;28;19929;-75
2022/07/27 06:08:01;;;;;;;;;;;;;;;;;;10380926;28;19921;-75
2022/07/27 06:13:02;;;;;;;;;;;;;;;;;;10378253;28;19925;-75
2022/07/27 06:18:02;;;;;;;;;;;;;;;;;;10380911;28;19931;-75
2022/07/27 06:23:03;;;;;;;;;;;;;;;;;;10376865;28;20019;-78
2022/07/27 06:28:03;;;;;;;;;;;;;;;;;;10380856;28;19925;-79
2022/07/27 06:33:03;;;;;;;;;;;;;;;;;;10381633;28;20423;-77
2022/07/27 06:38:04;;;;;;;;;;;;;;;;;;10369483;28;20399;-74
2022/07/27 06:43:04;;;;;;;;;;;;;;;;;;10385606;28;20741;-72
2022/07/27 06:48:04;;;;;;;;;;;;;;;;;;10380175;28;19925;-72
2022/07/27 06:53:04;;;;;;;;;;;;;;;;;;10384649;28;20337;-71
2022/07/27 06:58:04;;;;;;;;;;;;;;;;;;10378033;28;19925;-71
2022/07/27 07:03:05;;;;;;;;;;;;;;;;;;10376447;28;19990;-71
2022/07/27 07:08:10;;;;;;;;;;;;;;;;;;10381820;28;19971;-71
2022/07/27 07:13:10;;;;;;;;;;;;;;;;;;10381529;28;20380;-70
2022/07/27 07:18:10;;;;;;;;;;;;;;;;;;10384258;28;19917;-72
2022/07/27 07:23:11;;;;;;;;;;;;;;;;;;10373380;28;20357;-71
2022/07/27 07:28:11;;;;;;;;;;;;;;;;;;10382364;28;19917;-73
2022/07/27 07:33:11;;;;;;;;;;;;;;;;;;10367941;28;19913;-73
2022/07/27 07:38:11;;;;;;;;;;;;;;;;;;10382124;28;19920;-72
2022/07/27 07:43:12;;;;;;;;;;;;;;;;;;10374923;28;19925;-71
2022/07/27 07:48:12;;;;;;;;;;;;;;;;;;10377755;28;19921;-71
2022/07/27 07:53:12;;;;;;;;;;;;;;;;;;10371247;28;20547;-73
2022/07/27 07:58:12;;;;;;;;;;;;;;;;;;10376306;28;20000;-72
2022/07/27 08:03:12;;;;;;;;;;;;;;;;;;10384650;28;20056;-71
2022/07/27 08:08:13;;;;;;;;;;;;;;;;;;10377162;28;20023;-72
2022/07/27 08:13:13;;;;;;;;;;;;;;;;;;10384377;28;20365;-71
2022/07/27 08:18:13;;;;;;;;;;;;;;;;;;10377064;28;20376;-72
2022/07/27 08:23:14;;;;;;;;;;;;;;;;;;10374568;28;20028;-72
2022/07/27 08:28:14;;;;;;;;;;;;;;;;;;10372173;28;20324;-70
2022/07/27 08:33:14;;;;;;;;;;;;;;;;;;10375075;28;20317;-72
2022/07/27 08:38:14;;;;;;;;;;;;;;;;;;10373957;28;20008;-72
2022/07/27 08:43:14;;;;;;;;;;;;;;;;;;10381288;28;19976;-72
2022/07/27 08:48:15;;;;;;;;;;;;;;;;;;10378224;28;19917;-72
2022/07/27 08:53:15;;;;;;;;;;;;;;;;;;10375309;28;20020;-72
2022/07/27 08:58:16;;;;;;;;;;;;;;;;;;10378202;28;19952;-71
2022/07/27 09:03:16;;;;;;;;;;;;;;;;;;10388125;28;20269;-71
2022/07/27 09:08:17;;;;;;;;;;;;;;;;;;10379948;28;19917;-72
2022/07/27 09:13:17;;;;;;;;;;;;;;;;;;10380691;28;19963;-71
2022/07/27 09:18:18;;;;;;;;;;;;;;;;;;10384817;28;19924;-71
2022/07/27 09:23:18;;;;;;;;;;;;;;;;;;10382435;28;20702;-71
2022/07/27 09:28:19;;;;;;;;;;;;;;;;;;10377430;28;19929;-72
2022/07/27 09:33:19;;;;;;;;;;;;;;;;;;10382709;28;19936;-72
2022/07/27 09:38:19;;;;;;;;;;;;;;;;;;10376204;28;19952;-73
2022/07/27 09:43:19;;;;;;;;;;;;;;;;;;10379303;28;20286;-71
2022/07/27 09:48:19;;;;;;;;;;;;;;;;;;10382510;28;20284;-71
2022/07/27 09:53:20;;;;;;;;;;;;;;;;;;10385175;28;19959;-71
2022/07/27 09:58:20;;;;;;;;;;;;;;;;;;10381929;28;19914;-71
2022/07/27 10:03:20;;;;;;;;;;;;;;;;;;10382021;28;19927;-72
2022/07/27 10:08:20;;;;;;;;;;;;;;;;;;10380695;28;19971;-71
2022/07/27 10:13:21;;;;;;;;;;;;;;;;;;10370432;28;19917;-72
2022/07/27 10:18:21;;;;;;;;;;;;;;;;;;10384524;28;20350;-72
2022/07/27 10:23:21;;;;;;;;;;;;;;;;;;10390547;28;20397;-72
2022/07/27 10:28:21;;;;;;;;;;;;;;;;;;10379343;28;20429;-71
2022/07/27 10:33:22;;;;;;;;;;;;;;;;;;10378009;28;19939;-72
2022/07/27 10:38:22;;;;;;;;;;;;;;;;;;10375933;28;20039;-71
2022/07/27 10:43:23;;;;;;;;;;;;;;;;;;10391353;28;19926;-71
2022/07/27 10:48:23;;;;;;;;;;;;;;;;;;10384388;28;20411;-72
2022/07/27 10:53:23;;;;;;;;;;;;;;;;;;10380575;28;19933;-72
2022/07/27 10:58:27;;;;;;;;;;;;;;;;;;10372158;28;20088;-72
2022/07/27 11:03:27;;;;;;;;;;;;;;;;;;10381938;28;20028;-71
2022/07/27 11:08:28;;;;;;;;;;;;;;;;;;10379158;28;20390;-73
2022/07/27 11:13:28;;;;;;;;;;;;;;;;;;10388715;28;19956;-71
2022/07/27 11:18:28;;;;;;;;;;;;;;;;;;10373875;28;19925;-71
2022/07/27 11:23:28;;;;;;;;;;;;;;;;;;10382526;28;19936;-72
2022/07/27 11:28:28;;;;;;;;;;;;;;;;;;10374968;28;19925;-70
2022/07/27 11:33:29;;;;;;;;;;;;;;;;;;10373442;28;19921;-71
2022/07/27 11:38:29;;;;;;;;;;;;;;;;;;10381334;28;20400;-70
2022/07/27 11:43:29;;;;;;;;;;;;;;;;;;10378458;28;20596;-71
2022/07/27 11:48:30;;;;;;;;;;;;;;;;;;10379238;28;20365;-72
2022/07/27 11:53:30;;;;;;;;;;;;;;;;;;10369442;28;19920;-72
2022/07/27 11:58:30;;;;;;;;;;;;;;;;;;10379087;28;19914;-71
2022/07/27 12:03:30;;;;;;;;;;;;;;;;;;10379910;28;19922;-71
2022/07/27 12:08:30;;;;;;;;;;;;;;;;;;10387499;28;19920;-71
2022/07/27 12:13:31;;;;;;;;;;;;;;;;;;10361138;28;19928;-73
2022/07/27 12:18:31;;;;;;;;;;;;;;;;;;10372156;28;19941;-71
2022/07/27 12:23:32;;;;;;;;;;;;;;;;;;10382913;23;19933;-71
2022/07/27 12:28:32;;;;;;;;;;;;;;;;;;10368120;28;19924;-71
2022/07/27 12:33:35;;;;;;;;;;;;;;;;;;10371204;28;19917;-70
2022/07/27 12:38:36;;;;;;;;;;;;;;;;;;10379443;28;19913;-70
2022/07/27 12:43:36;;;;;;;;;;;;;;;;;;10368980;28;20455;-70
2022/07/27 12:48:36;;;;;;;;;;;;;;;;;;10376272;28;20249;-71
2022/07/27 12:53:37;;;;;;;;;;;;;;;;;;10373212;28;19918;-71
2022/07/27 12:58:37;;;;;;;;;;;;;;;;;;10398258;28;19921;-71
2022/07/27 13:03:37;;;;;;;;;;;;;;;;;;10381437;28;19964;-71
2022/07/27 13:08:37;;;;;;;;;;;;;;;;;;10370559;28;19994;-71
2022/07/27 13:13:38;;;;;;;;;;;;;;;;;;10372236;28;19936;-71
2022/07/27 13:18:38;;;;;;;;;;;;;;;;;;10369797;28;20001;-71
2022/07/27 13:23:38;;;;;;;;;;;;;;;;;;10375872;28;20380;-71
2022/07/27 13:28:38;;;;;;;;;;;;;;;;;;10379523;28;19917;-71
2022/07/27 13:33:40;;;;;;;;;;;;;;;;;;10389313;28;20341;-72
2022/07/27 13:38:41;;;;;;;;;;;;;;;;;;10366014;28;19917;-71
2022/07/27 13:43:41;;;;;;;;;;;;;;;;;;10374513;28;19922;-71
2022/07/27 13:48:41;;;;;;;;;;;;;;;;;;10370235;28;19917;-72
2022/07/27 13:53:41;;;;;;;;;;;;;;;;;;10381936;28;19921;-71
2022/07/27 13:58:42;;;;;;;;;;;;;;;;;;10362996;28;19913;-70
2022/07/27 14:03:43;;;;;;;;;;;;;;;;;;10375135;28;19951;-73
2022/07/27 14:08:43;;;;;;;;;;;;;;;;;;10370837;28;20008;-71
2022/07/27 14:13:43;;;;;;;;;;;;;;;;;;10372160;28;19944;-71
2022/07/27 14:18:44;;;;;;;;;;;;;;;;;;10374029;28;19979;-71
2022/07/27 14:23:44;;;;;;;;;;;;;;;;;;10349836;28;19925;-71
2022/07/27 14:28:44;;;;;;;;;;;;;;;;;;10373460;28;19917;-72
2022/07/27 14:33:45;;;;;;;;;;;;;;;;;;10379266;28;19981;-77
2022/07/27 14:38:46;;;;;;;;;;;;;;;;;;10394983;28;20012;-74
2022/07/27 14:43:48;;;;;;;;;;;;;;;;;;10390179;28;19959;-75
2022/07/27 14:48:48;;;;;;;;;;;;;;;;;;10423863;23;19927;-77
2022/07/27 14:53:48;;;;;;;;;;;;;;;;;;10484186;28;19912;-77
2022/07/27 14:58:48;;;;;;;;;;;;;;;;;;10450912;23;19930;-76
2022/07/27 15:03:49;;;;;;;;;;;;;;;;;;10433037;28;19932;-75
2022/07/27 15:08:49;;;;;;;;;;;;;;;;;;10421821;28;19917;-73
2022/07/27 15:13:50;;;;;;;;;;;;;;;;;;10430736;28;20670;-74
2022/07/27 15:18:50;;;;;;;;;;;;;;;;;;10427734;28;20027;-75
2022/07/27 15:23:50;;;;;;;;;;;;;;;;;;10433514;28;20003;-75
2022/07/27 15:28:51;;;;;;;;;;;;;;;;;;10423660;28;19913;-75
2022/07/27 15:33:51;;;;;;;;;;;;;;;;;;10414582;28;20380;-74
2022/07/27 15:38:51;;;;;;;;;;;;;;;;;;10419008;28;20363;-75
2022/07/27 15:43:52;;;;;;;;;;;;;;;;;;10416795;28;19933;-76
2022/07/27 15:48:53;;;;;;;;;;;;;;;;;;10417902;28;19947;-75
2022/07/27 15:53:53;;;;;;;;;;;;;;;;;;10415188;28;19917;-75
2022/07/27 15:58:53;;;;;;;;;;;;;;;;;;10430482;28;20338;-75
2022/07/27 16:03:53;;;;;;;;;;;;;;;;;;10419770;28;19924;-76
2022/07/27 16:08:54;;;;;;;;;;;;;;;;;;10424920;28;19991;-77
2022/07/27 16:13:54;;;;;;;;;;;;;;;;;;10414641;28;19916;-74
2022/07/27 16:18:55;;;;;;;;;;;;;;;;;;10415235;28;19959;-75
2022/07/27 16:23:55;;;;;;;;;;;;;;;;;;10431737;28;19925;-75
2022/07/27 16:28:58;;;;;;;;;;;;;;;;;;10398559;28;20391;-74
2022/07/27 16:33:58;;;;;;;;;;;;;;;;;;10435288;28;19917;-75
2022/07/27 16:38:58;;;;;;;;;;;;;;;;;;10403968;28;19913;-76
2022/07/27 16:43:58;;;;;;;;;;;;;;;;;;10416014;28;20023;-75
2022/07/27 16:48:59;;;;;;;;;;;;;;;;;;10417481;28;20000;-74
2022/07/27 16:53:59;;;;;;;;;;;;;;;;;;10416287;28;19917;-79
2022/07/27 16:58:59;;;;;;;;;;;;;;;;;;10409833;28;19977;-77
2022/07/27 17:04:00;;;;;;;;;;;;;;;;;;10437868;28;19951;-72
2022/07/27 17:09:00;;;;;;;;;;;;;;;;;;10416625;28;20463;-70
2022/07/27 17:14:00;;;;;;;;;;;;;;;;;;10411062;28;19912;-70
2022/07/27 17:19:00;;;;;;;;;;;;;;;;;;10420234;28;20431;-68
2022/07/27 17:24:00;;;;;;;;;;;;;;;;;;10424252;28;20002;-69
2022/07/27 17:29:01;;;;;;;;;;;;;;;;;;10430199;28;19917;-71
2022/07/27 17:34:01;;;;;;;;;;;;;;;;;;10420857;28;19916;-72
2022/07/27 17:39:04;;;;;;;;;;;;;;;;;;10425512;28;20003;-71
2022/07/27 17:44:04;;;;;;;;;;;;;;;;;;10424820;28;19932;-71
2022/07/27 17:49:05;;;;;;;;;;;;;;;;;;10431757;28;19916;-73
2022/07/27 17:54:05;;;;;;;;;;;;;;;;;;10436251;28;19979;-74
2022/07/27 17:59:05;;;;;;;;;;;;;;;;;;10421846;28;19968;-74
2022/07/27 18:04:05;;;;;;;;;;;;;;;;;;10426916;28;19970;-72
2022/07/27 18:09:07;;;;;;;;;;;;;;;;;;10425545;28;20371;-70
2022/07/27 18:14:07;;;;;;;;;;;;;;;;;;10425882;28;19917;-72
2022/07/27 18:19:07;;;;;;;;;;;;;;;;;;10429883;28;19917;-75
2022/07/27 18:24:08;;;;;;;;;;;;;;;;;;10420251;28;19931;-76
2022/07/27 18:29:08;;;;;;;;;;;;;;;;;;10426283;28;19921;-73
2022/07/27 18:34:08;;;;;;;;;;;;;;;;;;10428763;28;19913;-73
2022/07/27 18:39:08;;;;;;;;;;;;;;;;;;10425852;28;20348;-72
2022/07/27 18:44:09;;;;;;;;;;;;;;;;;;10420745;28;20467;-73
2022/07/27 18:49:09;;;;;;;;;;;;;;;;;;10433050;28;19912;-75
2022/07/27 18:54:09;;;;;;;;;;;;;;;;;;10416845;28;19917;-77
2022/07/27 18:59:10;;;;;;;;;;;;;;;;;;10417038;28;19920;-75
2022/07/27 19:04:10;;;;;;;;;;;;;;;;;;10423398;28;19924;-74
2022/07/27 19:09:10;;;;;;;;;;;;;;;;;;10428548;28;19920;-74
2022/07/27 19:14:10;;;;;;;;;;;;;;;;;;10426589;28;19955;-74
2022/07/27 19:19:11;;;;;;;;;;;;;;;;;;10418433;28;19916;-74
2022/07/27 19:24:12;;;;;;;;;;;;;;;;;;10421773;28;19927;-77
2022/07/27 19:29:15;;;;;;;;;;;;;;;;;;10412066;28;20145;-74
2022/07/27 19:34:16;;;;;;;;;;;;;;;;;;10422254;28;19948;-75
2022/07/27 19:39:16;;;;;;;;;;;;;;;;;;10421648;28;20012;-75
2022/07/27 19:44:16;;;;;;;;;;;;;;;;;;10415618;28;19924;-76
2022/07/27 19:49:16;;;;;;;;;;;;;;;;;;10419109;28;19917;-75
2022/07/27 19:54:18;;;;;;;;;;;;;;;;;;10432112;28;19917;-73
2022/07/27 19:59:18;;;;;;;;;;;;;;;;;;10423381;28;19967;-73
2022/07/27 20:04:19;;;;;;;;;;;;;;;;;;10416038;28;20028;-74
2022/07/27 20:09:19;;;;;;;;;;;;;;;;;;10425732;28;19912;-74
2022/07/27 20:14:19;;;;;;;;;;;;;;;;;;10419017;28;19970;-72
2022/07/27 20:19:19;;;;;;;;;;;;;;;;;;10420033;28;19920;-74
2022/07/27 20:24:20;;;;;;;;;;;;;;;;;;10420456;28;19924;-74
2022/07/27 20:29:20;;;;;;;;;;;;;;;;;;10428393;28;19917;-74
2022/07/27 20:34:20;;;;;;;;;;;;;;;;;;10425547;28;19916;-74
2022/07/27 20:39:23;;;;;;;;;;;;;;;;;;10420415;28;19963;-74
2022/07/27 20:44:23;;;;;;;;;;;;;;;;;;10420477;28;20353;-74
2022/07/27 20:49:23;;;;;;;;;;;;;;;;;;10411550;28;20012;-74
2022/07/27 20:54:23;;;;;;;;;;;;;;;;;;10398593;28;19928;-74
2022/07/27 20:59:24;;;;;;;;;;;;;;;;;;10420234;28;20006;-75
2022/07/27 21:04:25;;;;;;;;;;;;;;;;;;10435420;28;19925;-74
2022/07/27 21:09:25;;;;;;;;;;;;;;;;;;10431490;28;19913;-75
2022/07/27 21:14:25;;;;;;;;;;;;;;;;;;10418862;28;20004;-75
2022/07/27 21:19:26;;;;;;;;;;;;;;;;;;10426518;28;19920;-74
2022/07/27 21:24:28;;;;;;;;;;;;;;;;;;10415209;28;20015;-75
2022/07/27 21:29:28;;;;;;;;;;;;;;;;;;10434434;28;20371;-73
2022/07/27 21:34:28;;;;;;;;;;;;;;;;;;10433289;28;19917;-74
2022/07/27 21:39:28;;;;;;;;;;;;;;;;;;10422356;28;19917;-74
2022/07/27 21:44:31;;;;;;;;;;;;;;;;;;10423516;28;19931;-74
2022/07/27 21:49:31;;;;;;;;;;;;;;;;;;10427073;28;19967;-73
2022/07/27 21:54:31;;;;;;;;;;;;;;;;;;10432332;28;19931;-74
2022/07/27 21:59:32;;;;;;;;;;;;;;;;;;10418278;28;19921;-73
2022/07/27 22:04:32;;;;;;;;;;;;;;;;;;10421502;28;19971;-74
2022/07/27 22:09:33;;;;;;;;;;;;;;;;;;10411766;28;20355;-75
2022/07/27 22:14:33;;;;;;;;;;;;;;;;;;10425491;28;19959;-75
2022/07/27 22:19:34;;;;;;;;;;;;;;;;;;10429082;28;19913;-74
2022/07/27 22:24:34;;;;;;;;;;;;;;;;;;10426693;28;19928;-73
2022/07/27 22:29:34;;;;;;;;;;;;;;;;;;10419680;28;20003;-72
2022/07/27 22:34:34;;;;;;;;;;;;;;;;;;10424731;28;19913;-74
2022/07/27 22:39:35;;;;;;;;;;;;;;;;;;10423503;28;19917;-73
2022/07/27 22:44:36;;;;;;;;;;;;;;;;;;10413200;28;19932;-73
2022/07/27 22:49:37;;;;;;;;;;;;;;;;;;10423458;28;19982;-77
2022/07/27 22:54:37;;;;;;;;;;;;;;;;;;10418278;28;20733;-73
2022/07/27 22:59:37;;;;;;;;;;;;;;;;;;10419422;28;20387;-75
2022/07/27 23:04:37;;;;;;;;;;;;;;;;;;10419090;28;19925;-73
2022/07/27 23:09:38;;;;;;;;;;;;;;;;;;10425511;28;19917;-73
2022/07/27 23:14:38;;;;;;;;;;;;;;;;;;10415961;28;19979;-73
2022/07/27 23:19:38;;;;;;;;;;;;;;;;;;10417623;28;19917;-72
2022/07/27 23:24:38;;;;;;;;;;;;;;;;;;10415602;28;19925;-73
2022/07/27 23:29:39;;;;;;;;;;;;;;;;;;10407468;28;19917;-72
2022/07/27 23:34:39;;;;;;;;;;;;;;;;;;10419410;28;19943;-74
2022/07/27 23:39:39;;;;;;;;;;;;;;;;;;10418808;28;20036;-73
2022/07/27 23:44:39;;;;;;;;;;;;;;;;;;10403640;28;19928;-74
2022/07/27 23:49:39;;;;;;;;;;;;;;;;;;10411556;28;19912;-73
2022/07/27 23:54:40;;;;;;;;;;;;;;;;;;10417802;28;20334;-73
2022/07/27 23:59:40;;;;;;;;;;;;;;;;;;10413655;28;20439;-73
